Time;durP1;ratioP1;P1;durP2;ratioP2;P2;SDS_P1;SDS_P2;PMS_P1;PMS_P2;Temp;Humidity;BMP_temperature;BMP_pressure;BME280_temperature;BME280_humidity;BME280_pressure;Samples;Min_cycle;Max_cycle;Signal;HPM_P1;HPM_P2
2022/02/18 00:09:28;;;;;;;4.88;0.80;;;7.50;99.90;;;;;;20482030;28;20533;-46
2022/02/18 00:19:30;;;;;;;5.70;0.80;;;7.40;99.90;;;;;;20481815;28;20051;-46
2022/02/18 00:29:31;;;;;;;6.68;0.43;;;7.50;99.90;;;;;;20488202;28;20524;-46
2022/02/18 00:39:32;;;;;;;4.00;0.88;;;7.50;99.90;;;;;;20485040;28;20078;-46
2022/02/18 00:49:34;;;;;;;4.13;1.02;;;7.60;99.90;;;;;;20509493;28;20043;-46
2022/02/18 00:59:35;;;;;;;1.63;0.60;;;7.50;99.90;;;;;;20505125;28;20057;-46
2022/02/18 01:09:37;;;;;;;3.17;0.55;;;7.50;99.90;;;;;;20511981;28;20628;-46
2022/02/18 01:19:38;;;;;;;4.30;1.20;;;7.50;99.90;;;;;;20512558;28;20057;-46
2022/02/18 01:29:39;;;;;;;2.25;0.88;;;7.50;99.90;;;;;;20500873;28;20055;-46
2022/02/18 01:39:46;;;;;;;4.13;0.80;;;7.60;99.90;;;;;;20512077;28;20069;-46
2022/02/18 01:49:48;;;;;;;5.43;1.52;;;7.60;99.90;;;;;;20499513;28;20047;-46
2022/02/18 01:59:49;;;;;;;18.63;1.40;;;7.60;99.90;;;;;;20494421;28;20042;-46
2022/02/18 02:09:52;;;;;;;6.18;0.98;;;7.60;99.90;;;;;;20499272;28;20066;-46
2022/02/18 02:19:53;;;;;;;5.20;0.80;;;7.60;99.90;;;;;;20499844;28;20048;-46
2022/02/18 02:29:54;;;;;;;5.53;0.88;;;7.60;99.90;;;;;;20504656;28;20050;-46
2022/02/18 02:39:55;;;;;;;8.45;0.60;;;7.60;99.90;;;;;;20501005;28;20051;-46
2022/02/18 02:49:57;;;;;;;4.57;0.80;;;7.60;99.90;;;;;;20499795;28;20515;-46
2022/02/18 02:59:58;;;;;;;8.30;1.23;;;7.70;99.90;;;;;;20494370;28;20388;-46
2022/02/18 03:09:59;;;;;;;7.13;0.95;;;7.60;99.90;;;;;;20491194;28;20039;-46
2022/02/18 03:20:00;;;;;;;1.45;0.55;;;7.60;99.90;;;;;;20489655;28;20043;-46
2022/02/18 03:30:02;;;;;;;6.43;1.25;;;7.50;99.90;;;;;;20499526;28;20490;-46
2022/02/18 03:40:03;;;;;;;6.35;0.77;;;7.60;99.90;;;;;;20487517;28;20491;-46
2022/02/18 03:50:06;;;;;;;10.30;1.55;;;7.60;99.90;;;;;;20517078;28;20146;-46
2022/02/18 04:00:07;;;;;;;10.63;2.80;;;7.70;99.90;;;;;;20515450;28;20036;-46
2022/02/18 04:10:09;;;;;;;7.88;1.95;;;7.70;99.90;;;;;;20513330;28;20427;-46
2022/02/18 04:20:11;;;;;;;11.10;1.92;;;7.70;99.90;;;;;;20510893;28;20043;-46
2022/02/18 04:30:12;;;;;;;3.67;1.17;;;7.70;99.90;;;;;;20529266;28;20419;-46
2022/02/18 04:40:16;;;;;;;13.38;1.98;;;7.70;99.90;;;;;;20536191;28;20055;-46
2022/02/18 04:50:17;;;;;;;11.02;2.22;;;7.80;99.90;;;;;;20527335;28;20542;-46
2022/02/18 05:00:19;;;;;;;6.90;0.95;;;7.80;99.90;;;;;;20534848;28;20035;-46
2022/02/18 05:10:20;;;;;;;6.10;1.27;;;7.90;99.90;;;;;;20526990;28;20055;-46
2022/02/18 05:20:21;;;;;;;4.43;1.33;;;7.90;99.90;;;;;;20524442;28;20054;-46
2022/02/18 05:30:23;;;;;;;7.22;0.90;;;7.90;99.90;;;;;;20530090;28;20058;-46
2022/02/18 05:40:24;;;;;;;9.85;1.15;;;7.90;99.90;;;;;;20527302;28;20043;-46
2022/02/18 05:50:25;;;;;;;10.80;3.95;;;8.00;99.90;;;;;;20529918;28;20050;-46
2022/02/18 06:00:26;;;;;;;8.95;1.35;;;8.00;99.90;;;;;;20526103;28;20058;-47
2022/02/18 06:10:28;;;;;;;7.45;1.35;;;8.10;99.90;;;;;;20524479;28;20051;-47
2022/02/18 06:20:29;;;;;;;6.65;1.27;;;8.20;99.90;;;;;;20531676;28;20058;-46
2022/02/18 06:30:31;;;;;;;5.82;1.88;;;8.20;99.90;;;;;;20534650;28;20051;-47
2022/02/18 06:40:33;;;;;;;3.55;0.90;;;8.20;99.90;;;;;;20521825;28;20375;-47
2022/02/18 06:50:35;;;;;;;3.50;0.93;;;8.20;99.90;;;;;;20523089;28;20054;-47
2022/02/18 07:00:36;;;;;;;4.55;2.28;;;8.00;99.90;;;;;;20524665;28;20043;-46
2022/02/18 07:10:37;;;;;;;5.97;1.30;;;7.90;99.90;;;;;;20531160;28;20439;-47
2022/02/18 07:20:39;;;;;;;5.97;1.23;;;7.90;99.90;;;;;;20521792;28;20038;-46
2022/02/18 07:30:41;;;;;;;8.00;1.08;;;7.90;99.90;;;;;;20515894;28;20472;-46
2022/02/18 07:40:43;;;;;;;13.95;1.35;;;8.00;99.90;;;;;;20503147;28;20058;-47
2022/02/18 07:50:44;;;;;;;7.05;1.75;;;8.00;99.90;;;;;;20517599;28;20566;-46
2022/02/18 08:00:46;;;;;;;14.18;1.80;;;8.20;99.90;;;;;;20499408;28;20401;-46
2022/02/18 08:10:47;;;;;;;12.35;2.25;;;8.20;99.90;;;;;;20486601;28;20054;-47
2022/02/18 08:20:48;;;;;;;6.18;1.60;;;8.30;99.90;;;;;;20493756;28;20032;-46
2022/02/18 08:30:50;;;;;;;6.60;1.60;;;8.30;99.90;;;;;;20501323;28;20594;-47
2022/02/18 08:40:52;;;;;;;5.30;1.77;;;8.50;99.90;;;;;;20483491;28;20379;-47
2022/02/18 08:50:55;;;;;;;5.32;1.90;;;8.60;99.90;;;;;;20480259;28;20046;-47
2022/02/18 09:00:57;;;;;;;7.00;2.08;;;8.90;99.90;;;;;;20487483;28;20042;-47
2022/02/18 09:10:58;;;;;;;8.45;2.65;;;9.20;99.90;;;;;;20510552;28;20543;-47
2022/02/18 09:20:59;;;;;;;5.80;2.30;;;9.50;99.90;;;;;;20504957;28;20042;-47
2022/02/18 09:31:01;;;;;;;5.95;2.40;;;9.70;99.90;;;;;;20503561;28;20169;-47
2022/02/18 09:41:06;;;;;;;4.88;2.67;;;10.00;99.90;;;;;;20491210;28;20381;-47
2022/02/18 09:51:08;;;;;;;2.85;1.33;;;10.00;99.90;;;;;;20488027;28;20051;-47
2022/02/18 10:01:11;;;;;;;4.50;2.20;;;10.20;99.90;;;;;;20505015;28;20042;-47
2022/02/18 10:11:12;;;;;;;2.50;1.08;;;10.30;99.90;;;;;;20536023;28;20066;-47
2022/02/18 10:21:16;;;;;;;3.15;1.13;;;10.60;99.90;;;;;;20490551;28;20042;-47
2022/02/18 10:31:17;;;;;;;2.90;0.98;;;10.80;99.90;;;;;;20475016;28;20034;-47
2022/02/18 10:41:23;;;;;;;4.05;1.08;;;10.90;99.90;;;;;;20492956;28;20077;-47
2022/02/18 10:51:30;;;;;;;1.98;0.88;;;11.10;99.90;;;;;;20489889;28;20066;-47
2022/02/18 11:01:32;;;;;;;1.17;0.38;;;11.30;99.90;;;;;;20491399;28;20684;-47
2022/02/18 11:11:39;;;;;;;0.60;0.20;;;11.50;99.90;;;;;;20495535;28;20055;-47
2022/02/18 11:21:40;;;;;;;0.88;0.32;;;11.80;99.90;;;;;;20425261;28;20520;-47
2022/02/18 11:31:52;;;;;;;2.58;0.30;;;12.00;99.90;;;;;;20446956;28;20517;-47
2022/02/18 11:42:04;;;;;;;0.80;0.30;;;12.20;99.90;;;;;;20457021;28;20054;-47
2022/02/18 11:52:13;;;;;;;0.80;0.20;;;12.30;99.90;;;;;;20456291;28;20039;-47
2022/02/18 12:02:14;;;;;;;2.03;0.50;;;12.10;99.90;;;;;;20468908;28;20051;-47
2022/02/18 12:12:25;;;;;;;2.13;1.13;;;10.90;99.90;;;;;;20480309;28;20050;-46
2022/02/18 12:22:35;;;;;;;4.90;0.35;;;9.90;99.90;;;;;;20440832;28;20039;-47
2022/02/18 12:32:36;;;;;;;2.53;0.28;;;9.90;99.90;;;;;;20490277;28;20047;-48
2022/02/18 12:42:38;;;;;;;2.33;0.60;;;10.20;99.90;;;;;;20465339;28;20043;-47
2022/02/18 12:52:42;;;;;;;2.38;0.50;;;10.30;99.90;;;;;;20436276;28;20051;-47
2022/02/18 13:02:45;;;;;;;1.90;0.55;;;10.10;99.90;;;;;;20438196;28;20043;-46
2022/02/18 13:12:50;;;;;;;4.25;1.17;;;10.00;99.90;;;;;;20425820;28;20047;-47
2022/02/18 13:22:55;;;;;;;9.75;0.63;;;10.10;99.90;;;;;;20447472;28;20043;-46
2022/02/18 13:32:58;;;;;;;6.00;0.95;;;10.20;99.90;;;;;;20506821;28;20109;-46
2022/02/18 13:43:01;;;;;;;5.03;1.10;;;10.20;99.90;;;;;;20523848;28;20046;-47
2022/02/18 13:53:02;;;;;;;1.75;0.40;;;10.40;99.90;;;;;;20510522;28;20062;-47
2022/02/18 14:03:05;;;;;;;8.38;0.90;;;10.60;99.90;;;;;;20525957;28;20046;-47
2022/02/18 14:13:19;;;;;;;9.60;1.13;;;11.00;99.90;;;;;;20544306;28;20050;-47
2022/02/18 14:23:35;;;;;;;12.70;1.00;;;10.90;99.90;;;;;;20563680;28;20033;-46
2022/02/18 14:33:36;;;;;;;2.13;0.60;;;11.40;99.90;;;;;;20529109;28;20102;-47
2022/02/18 14:43:55;;;;;;;4.70;1.10;;;11.20;99.90;;;;;;20556254;28;20050;-46
2022/02/18 14:53:58;;;;;;;5.47;1.30;;;11.20;99.90;;;;;;20482143;28;20126;-45
2022/02/18 15:04:00;;;;;;;9.45;1.08;;;11.10;99.90;;;;;;20487913;28;20098;-47
2022/02/18 15:14:01;;;;;;;8.32;1.48;;;11.20;99.90;;;;;;20470071;28;20085;-48
2022/02/18 15:24:03;;;;;;;5.28;0.98;;;11.00;99.90;;;;;;20415248;28;20400;-48
2022/02/18 15:34:35;;;;;;;11.35;1.52;;;10.90;99.90;;;;;;20329900;28;20066;-47
2022/02/18 15:44:31;;;;;;;8.98;2.53;;;10.50;99.90;;;;;;20434536;28;20542;-46
2022/02/18 15:54:40;;;;;;;10.13;1.63;;;10.00;99.90;;;;;;20464852;28;20051;-47
2022/02/18 16:04:45;;;;;;;7.68;2.03;;;9.80;99.90;;;;;;20542539;28;20039;-47
2022/02/18 16:14:47;;;;;;;12.38;2.17;;;9.80;99.90;;;;;;20509088;28;20055;-48
2022/02/18 16:24:49;;;;;;;13.70;2.60;;;9.60;99.90;;;;;;20513686;28;20035;-46
2022/02/18 16:34:50;;;;;;;12.63;2.97;;;9.50;99.90;;;;;;20540854;28;20053;-47
2022/02/18 16:44:52;;;;;;;6.07;1.23;;;9.30;99.90;;;;;;20505674;28;20368;-47
2022/02/18 16:54:53;;;;;;;3.45;0.90;;;9.30;99.90;;;;;;20477009;28;20046;-48
2022/02/18 17:04:54;;;;;;;4.22;1.00;;;9.30;99.90;;;;;;20518219;28;20109;-46
2022/02/18 17:14:55;;;;;;;3.17;0.50;;;9.00;99.90;;;;;;20452270;28;20057;-46
2022/02/18 17:24:56;;;;;;;5.93;0.63;;;9.00;99.90;;;;;;20529489;28;20036;-47
2022/02/18 17:35:01;;;;;;;8.95;1.80;;;8.90;99.90;;;;;;20512681;28;20057;-46
2022/02/18 17:45:04;;;;;;;6.72;0.98;;;8.10;99.90;;;;;;20515457;28;20062;-46
2022/02/18 17:55:06;;;;;;;1.23;0.38;;;8.00;99.90;;;;;;20513157;28;20055;-46
2022/02/18 18:05:08;;;;;;;6.68;0.57;;;6.80;99.90;;;;;;20485186;28;20043;-45
2022/02/18 18:15:10;;;;;;;8.05;0.75;;;6.80;99.90;;;;;;20536264;28;20055;-46
2022/02/18 18:25:11;;;;;;;6.95;1.00;;;7.30;99.90;;;;;;20577046;28;20043;-45
2022/02/18 18:35:12;;;;;;;4.88;1.48;;;7.60;99.90;;;;;;20588029;28;20061;-46
2022/02/18 18:45:13;;;;;;;5.07;1.15;;;7.70;99.90;;;;;;20575107;28;20638;-48
2022/02/18 18:55:15;;;;;;;6.45;1.77;;;7.80;99.90;;;;;;20569375;28;20051;-46
2022/02/18 19:05:19;;;;;;;8.45;0.95;;;8.10;99.90;;;;;;20596041;28;20042;-47
2022/02/18 19:15:20;;;;;;;8.23;0.95;;;7.90;99.90;;;;;;20584359;28;20082;-46
2022/02/18 19:25:22;;;;;;;3.83;1.65;;;7.90;99.90;;;;;;20578245;28;20433;-47
2022/02/18 19:35:24;;;;;;;2.85;0.68;;;7.80;99.90;;;;;;20559938;28;20482;-46
2022/02/18 19:45:27;;;;;;;6.00;0.98;;;7.80;99.90;;;;;;20486923;28;20526;-46
2022/02/18 19:55:28;;;;;;;4.18;1.17;;;7.70;99.90;;;;;;20445621;28;20045;-45
2022/02/18 20:05:29;;;;;;;3.88;0.98;;;7.80;99.90;;;;;;20547016;28;20406;-44
2022/02/18 20:15:30;;;;;;;2.00;0.70;;;7.60;99.90;;;;;;20544521;28;20043;-45
2022/02/18 20:25:31;;;;;;;2.97;0.60;;;7.60;99.90;;;;;;20510600;28;20034;-46
2022/02/18 20:35:32;;;;;;;5.65;0.70;;;7.80;99.90;;;;;;20540202;28;20055;-45
2022/02/18 20:45:34;;;;;;;9.23;1.45;;;7.80;99.90;;;;;;20544993;28;20043;-45
2022/02/18 20:55:36;;;;;;;9.43;1.58;;;7.90;99.90;;;;;;20523572;28;20050;-46
2022/02/18 21:05:38;;;;;;;3.38;0.50;;;7.90;99.90;;;;;;20582028;28;20050;-46
2022/02/18 21:15:39;;;;;;;4.72;1.33;;;7.80;99.90;;;;;;20569231;28;20039;-46
2022/02/18 21:25:40;;;;;;;2.50;0.65;;;7.80;99.90;;;;;;20558885;28;20043;-47
2022/02/18 21:35:42;;;;;;;5.32;0.70;;;7.70;99.90;;;;;;20542138;28;20067;-45
2022/02/18 21:45:44;;;;;;;5.50;1.13;;;7.60;99.90;;;;;;20500967;28;20051;-45
2022/02/18 21:55:45;;;;;;;4.85;1.30;;;7.40;99.90;;;;;;20500723;28;20063;-46
2022/02/18 22:05:47;;;;;;;8.98;0.88;;;7.20;99.90;;;;;;20505000;28;20039;-47
2022/02/18 22:15:48;;;;;;;5.20;0.82;;;7.30;99.90;;;;;;20527698;28;20071;-46
2022/02/18 22:25:52;;;;;;;3.60;0.40;;;7.20;99.90;;;;;;20493636;28;20533;-46
2022/02/18 22:35:53;;;;;;;4.75;0.82;;;7.10;99.90;;;;;;20517057;28;20066;-45
2022/02/18 22:45:54;;;;;;;0.68;0.43;;;7.10;99.90;;;;;;20496830;28;20495;-45
2022/02/18 22:55:55;;;;;;;6.80;2.15;;;7.00;99.90;;;;;;20508263;28;20051;-45
2022/02/18 23:05:57;;;;;;;2.72;0.40;;;7.00;99.90;;;;;;20510097;28;20039;-45
2022/02/18 23:15:58;;;;;;;4.53;1.35;;;6.90;99.90;;;;;;20504461;28;20058;-45
2022/02/18 23:25:59;;;;;;;5.68;0.80;;;6.90;99.90;;;;;;20497429;28;20031;-45
2022/02/18 23:36:00;;;;;;;6.68;0.77;;;6.80;99.90;;;;;;20511433;28;20438;-47
2022/02/18 23:46:01;;;;;;;5.57;0.60;;;6.60;99.90;;;;;;20495715;28;20042;-45
2022/02/18 23:56:03;;;;;;;5.65;1.25;;;6.60;99.90;;;;;;20492772;28;20055;-45
